createdAt,value
2023-04-11T00:00:15.153Z,3.27
2023-04-11T00:02:23.829Z,3.23
2023-04-11T00:04:36.529Z,3.29
2023-04-11T00:06:45.422Z,3.31
2023-04-11T00:08:52.467Z,3.3
2023-04-11T00:11:03.808Z,3.27
2023-04-11T00:13:10.860Z,3.21
2023-04-11T00:15:18.939Z,3.19
2023-04-11T00:17:27.387Z,3.15
2023-04-11T00:19:36.479Z,3.14
2023-04-11T00:21:46.250Z,3.2
2023-04-11T00:23:52.916Z,3.21
2023-04-11T00:26:00.178Z,3.19
2023-04-11T00:28:07.012Z,3.14
2023-04-11T00:30:15.630Z,3.11
2023-04-11T00:32:22.392Z,3.1
2023-04-11T00:34:29.105Z,3.05
2023-04-11T00:36:40.561Z,3.07
2023-04-11T00:38:50.974Z,3.03
2023-04-11T00:40:58.756Z,2.96
2023-04-11T00:43:08.601Z,2.9
2023-04-11T00:45:18.332Z,2.83
2023-04-11T00:47:25.876Z,2.75
2023-04-11T00:49:38.199Z,2.78
2023-04-11T00:51:45.378Z,2.76
2023-04-11T00:53:55.965Z,2.7
2023-04-11T00:56:02.790Z,2.63
2023-04-11T00:58:12.377Z,2.67
2023-04-11T01:00:25.447Z,2.71
2023-04-11T01:02:35.395Z,2.75
2023-04-11T01:04:43.108Z,2.8
2023-04-11T01:06:49.925Z,2.8
2023-04-11T01:08:57.158Z,2.79
2023-04-11T01:11:04.127Z,2.74
2023-04-11T01:13:11.173Z,2.64
2023-04-11T01:15:18.069Z,2.61
2023-04-11T01:17:28.119Z,2.58
2023-04-11T01:19:37.115Z,2.63
2023-04-11T01:21:44.520Z,2.63
2023-04-11T01:23:51.470Z,2.58
2023-04-11T01:25:58.812Z,2.48
2023-04-11T01:28:06.279Z,2.43
2023-04-11T01:30:13.167Z,2.36
2023-04-11T01:32:19.853Z,2.3
2023-04-11T01:34:26.706Z,2.34
2023-04-11T01:36:36.370Z,2.32
2023-04-11T01:38:44.101Z,2.32
2023-04-11T01:40:54.283Z,2.43
2023-04-11T01:43:01.348Z,2.41
2023-04-11T01:45:08.508Z,2.34
2023-04-11T01:47:15.674Z,2.27
2023-04-11T01:49:24.656Z,2.21
2023-04-11T01:51:33.956Z,2.16
2023-04-11T01:53:48.629Z,2.12
2023-04-11T01:55:55.929Z,2.07
2023-04-11T01:58:02.693Z,2.02
2023-04-11T02:00:10.048Z,1.94
2023-04-11T02:02:17.800Z,1.85
2023-04-11T02:04:25.390Z,1.87
2023-04-11T02:06:32.819Z,1.84
2023-04-11T02:08:40.229Z,1.86
2023-04-11T02:10:46.947Z,1.84
2023-04-11T02:12:56.325Z,1.86
2023-04-11T02:15:06.170Z,1.88
2023-04-11T02:17:12.830Z,1.82
2023-04-11T02:19:20.741Z,1.83
2023-04-11T02:21:28.291Z,1.8
2023-04-11T02:23:35.346Z,1.78
2023-04-11T02:25:42.420Z,1.73
2023-04-11T02:27:49.335Z,1.69
2023-04-11T02:29:56.105Z,1.74
2023-04-11T02:32:06.849Z,1.73
2023-04-11T02:34:16.850Z,1.71
2023-04-11T02:36:26.546Z,1.68
2023-04-11T02:38:39.907Z,1.67
2023-04-11T02:40:47.197Z,1.63
2023-04-11T02:42:56.957Z,1.68
2023-04-11T02:45:03.704Z,1.69
2023-04-11T02:47:15.804Z,1.66
2023-04-11T02:49:22.621Z,1.66
2023-04-11T02:51:31.532Z,1.64
2023-04-11T02:53:43.913Z,1.61
2023-04-11T02:55:51.268Z,1.6
2023-04-11T02:58:00.297Z,1.59
2023-04-11T03:00:12.882Z,1.59
2023-04-11T03:02:20.021Z,1.57
2023-04-11T03:04:32.504Z,1.6
2023-04-11T03:06:39.585Z,1.65
2023-04-11T03:08:47.106Z,1.66
2023-04-11T03:10:54.139Z,1.65
2023-04-11T03:13:03.039Z,1.69
2023-04-11T03:15:10.141Z,1.73
2023-04-11T03:17:16.586Z,1.75
2023-04-11T03:19:28.005Z,1.75
2023-04-11T03:21:40.124Z,1.73
2023-04-11T03:23:49.311Z,1.73
2023-04-11T03:25:56.381Z,1.73
2023-04-11T03:28:03.228Z,1.69
2023-04-11T03:30:10.445Z,1.63
2023-04-11T03:32:17.132Z,1.57
2023-04-11T03:34:23.663Z,1.59
2023-04-11T03:36:30.466Z,1.54
2023-04-11T03:38:38.020Z,1.54
2023-04-11T03:40:44.989Z,1.56
2023-04-11T03:42:51.652Z,1.57
2023-04-11T03:44:58.798Z,1.6
2023-04-11T03:47:08.337Z,1.64
2023-04-11T03:49:16.116Z,1.6
2023-04-11T03:51:23.404Z,1.53
2023-04-11T03:53:31.641Z,1.52
2023-04-11T03:55:41.345Z,1.49
2023-04-11T03:57:47.675Z,1.52
2023-04-11T03:59:54.605Z,1.6
2023-04-11T04:02:01.351Z,1.7
2023-04-11T04:04:08.761Z,1.75
2023-04-11T04:06:16.376Z,1.8
2023-04-11T04:08:22.634Z,1.81
2023-04-11T04:10:33.053Z,1.81
2023-04-11T04:12:40.320Z,1.83
2023-04-11T04:14:47.465Z,1.88
2023-04-11T04:16:54.886Z,1.89
2023-04-11T04:19:02.180Z,1.87
2023-04-11T04:21:08.985Z,1.89
2023-04-11T04:23:15.916Z,1.96
2023-04-11T04:25:23.988Z,1.98
2023-04-11T04:27:32.550Z,2.03
2023-04-11T04:29:41.334Z,2.02
2023-04-11T04:31:53.710Z,2.01
2023-04-11T04:34:01.383Z,2.06
2023-04-11T04:36:08.503Z,2.11
2023-04-11T04:38:15.563Z,2.13
2023-04-11T04:40:22.289Z,2.17
2023-04-11T04:42:29.393Z,2.24
2023-04-11T04:44:36.565Z,2.29
2023-04-11T04:46:46.045Z,2.34
2023-04-11T04:48:55.656Z,2.36
2023-04-11T04:51:05.557Z,2.39
2023-04-11T04:53:12.176Z,2.45
2023-04-11T04:55:19.657Z,2.56
2023-04-11T04:57:29.640Z,2.7
2023-04-11T04:59:36.835Z,2.8
2023-04-11T05:01:43.928Z,2.91
2023-04-11T05:03:51.686Z,3.04
2023-04-11T05:06:00.030Z,3.28
2023-04-11T05:08:09.215Z,3.44
2023-04-11T05:10:16.336Z,3.67
2023-04-11T05:12:23.092Z,3.99
2023-04-11T05:14:29.678Z,4.25
2023-04-11T05:16:37.116Z,4.75
2023-04-11T05:18:44.130Z,5.19
2023-04-11T05:20:51.345Z,5.55
2023-04-11T05:22:58.249Z,5.66
2023-04-11T05:25:04.914Z,6
2023-04-11T05:27:11.748Z,6.65
2023-04-11T05:29:18.320Z,6.52
2023-04-11T05:31:25.066Z,6.69
2023-04-11T05:33:31.450Z,6.78
2023-04-11T05:35:38.079Z,6.93
2023-04-11T05:37:44.648Z,7.12
2023-04-11T05:39:51.631Z,7.43
2023-04-11T05:41:58.473Z,7.49
2023-04-11T05:44:05.138Z,7.5
2023-04-11T05:46:12.190Z,7.56
2023-04-11T05:48:20.254Z,7.61
2023-04-11T05:50:29.918Z,7.72
2023-04-11T05:52:36.408Z,7.85
2023-04-11T05:54:42.972Z,7.96
2023-04-11T05:56:49.787Z,8.14
2023-04-11T05:58:56.507Z,8.28
2023-04-11T06:01:03.330Z,8.33
2023-04-11T06:03:14.502Z,8.36
2023-04-11T06:05:21.627Z,8.42
2023-04-11T06:07:28.250Z,8.42
2023-04-11T06:09:34.730Z,8.49
2023-04-11T06:11:43.067Z,8.57
2023-04-11T06:13:49.817Z,8.71
2023-04-11T06:15:56.602Z,8.83
2023-04-11T06:18:03.571Z,8.96
2023-04-11T06:20:10.309Z,9.1
2023-04-11T06:22:17.039Z,9.38
2023-04-11T06:24:23.598Z,9.69
2023-04-11T06:26:30.213Z,9.88
2023-04-11T06:28:36.639Z,10
2023-04-11T06:30:43.046Z,10.24
2023-04-11T06:32:53.061Z,10.55
2023-04-11T06:35:02.563Z,10.74
2023-04-11T06:37:09.269Z,10.66
2023-04-11T06:39:15.495Z,10.88
2023-04-11T06:41:22.009Z,10.92
2023-04-11T06:43:29.303Z,11.13
2023-04-11T06:45:36.080Z,11.46
2023-04-11T06:47:43.019Z,11.56
2023-04-11T06:49:49.757Z,11.38
2023-04-11T06:51:56.235Z,11.35
2023-04-11T06:54:03.063Z,11.79
2023-04-11T06:56:10.409Z,11.79
2023-04-11T06:58:17.074Z,11.73
2023-04-11T07:00:24.086Z,11.93
2023-04-11T07:02:31.612Z,11.86
2023-04-11T07:04:39.298Z,12
2023-04-11T07:06:47.256Z,11.94
2023-04-11T07:08:54.357Z,12.2
2023-04-11T07:11:02.019Z,12.47
2023-04-11T07:13:08.704Z,12.67
2023-04-11T07:15:17.845Z,12.74
2023-04-11T07:17:27.998Z,12.57
2023-04-11T07:22:04.276Z,13
2023-04-11T07:24:11.408Z,13.34
2023-04-11T07:26:18.713Z,13.44
2023-04-11T07:28:25.929Z,13.53
2023-04-11T07:30:32.674Z,13.58
2023-04-11T07:32:40.050Z,14.41
2023-04-11T07:34:47.620Z,14.57
2023-04-11T07:36:56.639Z,14.97
2023-04-11T07:39:03.573Z,14.97
2023-04-11T07:41:10.155Z,14.44
2023-04-11T07:43:17.128Z,14.66
2023-04-11T07:45:24.406Z,15.22
2023-04-11T07:47:31.580Z,15.15
2023-04-11T07:49:38.389Z,14.69
2023-04-11T07:51:48.693Z,14.48
2023-04-11T07:53:58.495Z,14.47
2023-04-11T07:56:06.373Z,15.48
2023-04-11T07:58:12.842Z,15.46
2023-04-11T08:00:19.847Z,15.58
2023-04-11T08:02:29.030Z,15.04
2023-04-11T08:04:39.554Z,15.26
2023-04-11T08:06:48.544Z,15.71
2023-04-11T08:08:56.405Z,16.02
2023-04-11T08:11:04.653Z,15.58
2023-04-11T08:13:11.756Z,15.18
2023-04-11T08:15:18.909Z,14.89
2023-04-11T08:17:28.420Z,15.57
2023-04-11T08:19:35.794Z,15.54
2023-04-11T08:21:42.672Z,15.68
2023-04-11T08:23:52.487Z,16.19
2023-04-11T08:26:00.826Z,15.51
2023-04-11T08:28:08.748Z,15.61
2023-04-11T08:30:16.062Z,15.45
2023-04-11T08:32:24.048Z,15.17
2023-04-11T08:34:31.192Z,15.82
2023-04-11T08:36:38.172Z,15.73
2023-04-11T08:38:45.664Z,16.41
2023-04-11T08:40:54.543Z,16.05
2023-04-11T08:43:01.672Z,16.86
2023-04-11T08:45:08.098Z,16.92
2023-04-11T08:47:14.775Z,16.49
2023-04-11T08:49:22.159Z,16.48
2023-04-11T08:51:30.632Z,15.99
2023-04-11T08:53:38.354Z,16.42
2023-04-11T08:55:45.249Z,16.66
2023-04-11T08:57:52.372Z,16.61
2023-04-11T08:59:58.829Z,16.84
2023-04-11T09:02:05.899Z,16.98
2023-04-11T09:04:14.266Z,17.3
2023-04-11T09:06:21.736Z,17.45
2023-04-11T09:08:28.828Z,17.13
2023-04-11T09:10:36.885Z,16.84
2023-04-11T09:12:44.300Z,17.32
2023-04-11T09:15:12.166Z,16.96
2023-04-11T09:17:28.080Z,16.27
2023-04-11T09:19:34.460Z,16.2
2023-04-11T09:21:41.394Z,16.96
2023-04-11T09:23:49.471Z,17.01
2023-04-11T09:25:55.842Z,17.12
2023-04-11T09:28:01.976Z,17.53
2023-04-11T09:30:10.314Z,17.3
2023-04-11T09:32:18.033Z,15.97
2023-04-11T09:34:25.395Z,16.74
2023-04-11T09:36:31.812Z,17.41
2023-04-11T09:38:38.147Z,17.14
2023-04-11T09:40:44.933Z,16.38
2023-04-11T09:42:52.410Z,17.3
2023-04-11T09:44:58.752Z,17.84
2023-04-11T09:47:07.709Z,17.8
2023-04-11T09:49:14.622Z,16.98
2023-04-11T09:51:36.234Z,16.61
2023-04-11T09:53:46.299Z,16.99
2023-04-11T09:55:54.475Z,17.12
2023-04-11T09:58:06.564Z,17.56
2023-04-11T10:00:17.397Z,18.1
2023-04-11T10:02:30.008Z,17.63
2023-04-11T10:04:40.992Z,18.67
2023-04-11T10:06:51.139Z,18.17
2023-04-11T10:09:03.146Z,18.02
2023-04-11T10:11:09.743Z,17.94
2023-04-11T10:13:16.721Z,17.04
2023-04-11T10:15:22.842Z,17.09
2023-04-11T10:17:29.232Z,17.78
2023-04-11T10:19:35.647Z,18.01
2023-04-11T10:21:42.071Z,17.99
2023-04-11T10:23:49.129Z,18.05
2023-04-11T10:25:56.295Z,18.68
2023-04-11T10:28:03.172Z,18.44
2023-04-11T10:30:09.927Z,18.84
2023-04-11T10:32:25.785Z,18.1
2023-04-11T10:34:32.156Z,17.69
2023-04-11T10:36:41.576Z,18.55
2023-04-11T10:38:49.592Z,19.48
2023-04-11T10:40:59.047Z,18.71
2023-04-11T10:43:05.925Z,17.76
2023-04-11T10:45:13.576Z,17.35
2023-04-11T10:47:19.913Z,17.86
2023-04-11T10:49:27.598Z,18.34
2023-04-11T10:51:34.125Z,18.7
2023-04-11T10:53:41.603Z,18.58
2023-04-11T10:55:48.955Z,18.44
2023-04-11T10:57:56.090Z,18.53
2023-04-11T11:00:02.607Z,18.45
2023-04-11T11:02:09.210Z,19.06
2023-04-11T11:04:18.891Z,18.33
2023-04-11T11:06:26.431Z,18.16
2023-04-11T11:08:33.891Z,17.83
2023-04-11T11:10:41.615Z,18.39
2023-04-11T11:12:48.652Z,17.69
2023-04-11T11:14:59.298Z,17.21
2023-04-11T11:17:06.020Z,16.44
2023-04-11T11:19:13.114Z,16.31
2023-04-11T11:21:27.199Z,15.98
2023-04-11T11:23:36.449Z,16.06
2023-04-11T11:25:44.255Z,16.44
2023-04-11T11:27:51.320Z,16.6
2023-04-11T11:29:58.097Z,16.61
2023-04-11T11:32:07.132Z,16.68
2023-04-11T11:36:29.807Z,17.18
2023-04-11T11:38:37.314Z,17.16
2023-04-11T11:40:45.003Z,16.73
2023-04-11T11:42:52.244Z,17.19
2023-04-11T11:44:58.561Z,17.37
2023-04-11T11:47:05.149Z,17.3
2023-04-11T11:49:13.246Z,16.98
2023-04-11T11:51:21.087Z,17.51
2023-04-11T11:53:33.232Z,17.89
2023-04-11T11:55:41.590Z,17.56
2023-04-11T11:57:49.305Z,17.64
2023-04-11T11:59:57.017Z,17.21
2023-04-11T12:02:05.767Z,17.47
2023-04-11T12:04:12.524Z,17.93
2023-04-11T12:06:20.150Z,17.63
2023-04-11T12:08:28.087Z,17.3
2023-04-11T12:10:35.704Z,16.87
2023-04-11T12:12:43.377Z,16.93
2023-04-11T12:15:00.499Z,17.12
2023-04-11T12:17:06.819Z,16.95
2023-04-11T12:19:13.525Z,17.15
2023-04-11T12:21:21.587Z,17.25
2023-04-11T12:23:30.962Z,17.36
2023-04-11T12:25:39.143Z,17.47
2023-04-11T12:27:47.072Z,18.53
2023-04-11T12:29:54.438Z,17.62
2023-04-11T12:32:02.342Z,17.57
2023-04-11T12:34:09.828Z,17.89
2023-04-11T12:36:17.714Z,17.6
2023-04-11T12:38:25.603Z,18.05
2023-04-11T12:40:33.559Z,18.23
2023-04-11T12:42:53.440Z,19.41
2023-04-11T12:46:28.724Z,20.44
2023-04-11T12:48:37.185Z,19.65
2023-04-11T12:50:44.852Z,18.34
2023-04-11T12:52:51.497Z,18.05
2023-04-11T12:55:00.132Z,17.73
2023-04-11T12:57:07.100Z,17.14
2023-04-11T12:59:14.497Z,17.43
2023-04-11T13:01:22.607Z,17.57
2023-04-11T13:03:30.685Z,17.57
2023-04-11T13:05:39.274Z,17.51
2023-04-11T13:07:47.113Z,17.24
2023-04-11T13:09:54.675Z,17.15
2023-04-11T13:12:02.024Z,17.21
2023-04-11T13:14:10.109Z,16.83
2023-04-11T13:16:18.055Z,16.91
2023-04-11T13:18:25.645Z,16.76
2023-04-11T13:20:36.571Z,16.94
2023-04-11T13:22:48.363Z,16.79
2023-04-11T13:24:55.772Z,16.63
2023-04-11T13:27:03.292Z,16.19
2023-04-11T13:29:10.068Z,15.87
2023-04-11T13:31:17.757Z,15.82
2023-04-11T13:33:24.459Z,16.07
2023-04-11T13:35:32.640Z,16.25
2023-04-11T13:37:39.176Z,16.26
2023-04-11T13:39:46.558Z,16.28
2023-04-11T13:41:54.474Z,16.44
2023-04-11T13:44:01.724Z,16.34
2023-04-11T13:46:09.859Z,16.12
2023-04-11T13:48:18.812Z,16.14
2023-04-11T13:50:25.525Z,16.28
2023-04-11T13:52:33.191Z,16.45
2023-04-11T13:54:43.497Z,16.94
2023-04-11T13:56:49.813Z,17.08
2023-04-11T13:58:56.888Z,16.83
2023-04-11T14:01:07.433Z,16.63
2023-04-11T14:03:14.152Z,16.81
2023-04-11T14:05:22.222Z,17.11
2023-04-11T14:07:29.878Z,17.15
2023-04-11T14:09:36.837Z,16.99
2023-04-11T14:11:44.071Z,17.34
2023-04-11T14:13:52.085Z,17.55
2023-04-11T14:16:07.743Z,17.16
2023-04-11T14:18:16.809Z,16.9
2023-04-11T14:20:24.758Z,16.76
2023-04-11T14:22:32.684Z,16.81
2023-04-11T14:24:40.250Z,16.63
2023-04-11T14:26:48.617Z,16.52
2023-04-11T14:28:56.854Z,16.42
2023-04-11T14:31:04.587Z,16.08
2023-04-11T14:33:12.236Z,15.91
2023-04-11T14:35:22.819Z,15.71
2023-04-11T14:37:30.675Z,15.59
2023-04-11T14:39:38.073Z,15.66
2023-04-11T14:41:46.161Z,15.82
2023-04-11T14:43:54.194Z,15.87
2023-04-11T14:46:02.780Z,15.97
2023-04-11T14:48:11.416Z,16.05
2023-04-11T14:50:18.653Z,16.14
2023-04-11T14:52:28.844Z,16.22
2023-04-11T14:54:38.245Z,15.98
2023-04-11T14:56:45.686Z,16
2023-04-11T14:58:52.369Z,16.04
2023-04-11T15:00:59.404Z,16.2
2023-04-11T15:03:07.825Z,16.17
2023-04-11T15:05:15.745Z,16.13
2023-04-11T15:07:23.891Z,16.03
2023-04-11T15:09:30.780Z,15.95
2023-04-11T15:11:38.639Z,16.01
2023-04-11T15:13:46.420Z,15.86
2023-04-11T15:15:53.804Z,15.87
2023-04-11T15:18:01.010Z,15.88
2023-04-11T15:20:08.463Z,15.92
2023-04-11T15:22:15.656Z,15.8
2023-04-11T15:24:22.539Z,15.78
2023-04-11T15:26:28.858Z,15.65
2023-04-11T15:28:35.777Z,15.68
2023-04-11T15:30:43.898Z,15.56
2023-04-11T15:32:51.399Z,15.62
2023-04-11T15:34:59.062Z,15.53
2023-04-11T15:37:06.502Z,15.46
2023-04-11T15:39:13.709Z,15.46
2023-04-11T15:41:20.454Z,15.29
2023-04-11T15:43:28.066Z,15.42
2023-04-11T15:45:35.449Z,15.45
2023-04-11T15:47:44.512Z,15.33
2023-04-11T15:49:53.103Z,15.34
2023-04-11T15:52:00.255Z,15.29
2023-04-11T15:54:07.050Z,15.2
2023-04-11T15:56:15.107Z,15.17
2023-04-11T15:58:27.670Z,15.19
2023-04-11T16:00:37.979Z,15.1
2023-04-11T16:02:44.939Z,15
2023-04-11T16:04:54.420Z,15.04
2023-04-11T16:07:03.164Z,15.12
2023-04-11T16:09:10.621Z,15.07
2023-04-11T16:11:17.375Z,14.99
2023-04-11T16:13:25.143Z,14.93
2023-04-11T16:15:32.591Z,14.87
2023-04-11T16:17:39.697Z,14.77
2023-04-11T16:19:47.622Z,14.75
2023-04-11T16:21:55.378Z,14.69
2023-04-11T16:24:03.194Z,14.67
2023-04-11T16:26:10.147Z,14.66
2023-04-11T16:28:17.129Z,14.56
2023-04-11T16:30:25.973Z,14.54
2023-04-11T16:32:33.115Z,14.49
2023-04-11T16:34:40.970Z,14.39
2023-04-11T16:36:48.693Z,14.29
2023-04-11T16:38:56.356Z,14.2
2023-04-11T16:41:03.635Z,14.03
2023-04-11T16:43:12.033Z,14
2023-04-11T16:45:19.409Z,13.82
2023-04-11T16:47:27.215Z,13.77
2023-04-11T16:49:34.885Z,13.66
2023-04-11T16:51:43.557Z,13.49
2023-04-11T16:53:51.690Z,13.35
2023-04-11T16:55:59.388Z,13.21
2023-04-11T16:58:06.703Z,13.05
2023-04-11T17:00:14.445Z,12.88
2023-04-11T17:02:21.285Z,12.72
2023-04-11T17:04:29.301Z,12.59
2023-04-11T17:06:37.279Z,12.43
2023-04-11T17:08:43.916Z,12.27
2023-04-11T17:10:51.574Z,12.12
2023-04-11T17:12:59.341Z,11.98
2023-04-11T17:15:06.822Z,11.82
2023-04-11T17:17:13.901Z,11.68
2023-04-11T17:19:20.956Z,11.54
2023-04-11T17:21:30.063Z,11.4
2023-04-11T17:23:42.898Z,11.24
2023-04-11T17:26:04.028Z,11.05
2023-04-11T17:28:10.918Z,10.92
2023-04-11T17:30:18.081Z,10.77
2023-04-11T17:32:24.940Z,10.65
2023-04-11T17:34:31.500Z,10.51
2023-04-11T17:36:38.617Z,10.36
2023-04-11T17:38:45.406Z,10.25
2023-04-11T17:40:57.516Z,10.11
2023-04-11T17:43:19.857Z,9.93
2023-04-11T17:45:27.490Z,9.77
2023-04-11T17:47:35.449Z,9.62
2023-04-11T17:49:42.556Z,9.5
2023-04-11T17:51:58.511Z,9.46
2023-04-11T17:54:06.181Z,9.34
2023-04-11T17:56:13.641Z,9.18
2023-04-11T17:58:21.418Z,9.12
2023-04-11T18:00:28.769Z,9.01
2023-04-11T18:02:55.102Z,8.97
2023-04-11T18:05:07.925Z,8.92
2023-04-11T18:07:30.806Z,8.86
2023-04-11T18:09:38.905Z,8.81
2023-04-11T18:11:46.553Z,8.76
2023-04-11T18:14:00.039Z,8.7
2023-04-11T18:16:08.037Z,8.69
2023-04-11T18:18:18.227Z,8.64
2023-04-11T18:20:28.687Z,8.62
2023-04-11T18:22:35.944Z,8.61
2023-04-11T18:24:45.671Z,8.53
2023-04-11T18:26:52.762Z,8.47
2023-04-11T18:29:00.149Z,8.4
2023-04-11T18:31:08.298Z,8.34
2023-04-11T18:33:19.579Z,8.37
2023-04-11T18:35:27.647Z,8.35
2023-04-11T18:37:35.739Z,8.33
2023-04-11T18:39:43.289Z,8.36
2023-04-11T18:41:55.299Z,8.27
2023-04-11T18:44:05.660Z,8.24
2023-04-11T18:46:16.621Z,8.2
2023-04-11T18:48:26.119Z,8.07
2023-04-11T18:50:34.865Z,8.06
2023-04-11T18:52:45.755Z,8
2023-04-11T18:55:07.498Z,7.96
2023-04-11T18:57:18.246Z,7.92
2023-04-11T18:59:32.923Z,7.82
2023-04-11T19:01:54.639Z,7.72
2023-04-11T19:04:09.761Z,7.62
2023-04-11T19:06:20.918Z,7.57
2023-04-11T19:08:29.686Z,7.51
2023-04-11T19:10:37.727Z,7.44
2023-04-11T19:12:52.207Z,7.39
2023-04-11T19:15:06.630Z,7.37
2023-04-11T19:17:16.259Z,7.41
2023-04-11T19:19:24.169Z,7.39
2023-04-11T19:21:34.941Z,7.42
2023-04-11T19:23:46.161Z,7.43
2023-04-11T19:25:57.879Z,7.38
2023-04-11T19:28:07.762Z,7.3
2023-04-11T19:30:18.326Z,7.15
2023-04-11T19:32:27.298Z,7.08
2023-04-11T19:34:38.935Z,7
2023-04-11T19:36:52.679Z,6.94
2023-04-11T19:39:04.660Z,6.83
2023-04-11T19:41:14.601Z,6.7
2023-04-11T19:43:28.649Z,6.63
2023-04-11T19:45:38.453Z,6.59
2023-04-11T19:47:52.761Z,6.6
2023-04-11T19:50:03.114Z,6.6
2023-04-11T19:52:12.817Z,6.64
2023-04-11T19:54:25.001Z,6.57
2023-04-11T19:56:34.524Z,6.55
2023-04-11T19:58:49.546Z,6.53
2023-04-11T20:00:59.695Z,6.48
2023-04-11T20:03:10.044Z,6.45
2023-04-11T20:05:21.810Z,6.43
2023-04-11T20:07:33.031Z,6.44
2023-04-11T20:09:44.039Z,6.47
2023-04-11T20:11:58.699Z,6.5
2023-04-11T20:14:08.374Z,6.45
2023-04-11T20:16:25.857Z,6.44
2023-04-11T20:18:34.024Z,6.45
2023-04-11T20:20:46.199Z,6.53
2023-04-11T20:22:54.475Z,6.64
2023-04-11T20:25:11.971Z,6.76
2023-04-11T20:27:21.064Z,6.89
2023-04-11T20:31:37.482Z,7.07
2023-04-11T20:33:44.318Z,7.13
2023-04-11T20:35:51.462Z,7.17
2023-04-11T20:37:58.156Z,7.21
2023-04-11T20:40:04.581Z,7.24
2023-04-11T20:42:11.487Z,7.27
2023-04-11T20:44:17.851Z,7.3
2023-04-11T20:46:24.899Z,7.31
2023-04-11T20:48:32.253Z,7.36
2023-04-11T20:50:38.922Z,7.38
2023-04-11T20:52:47.335Z,7.46
2023-04-11T20:54:53.819Z,7.6
2023-04-11T20:57:00.400Z,7.59
2023-04-11T20:59:07.078Z,7.55
2023-04-11T21:01:13.691Z,7.48
2023-04-11T21:03:21.444Z,7.4
2023-04-11T21:05:28.588Z,7.35
2023-04-11T21:07:35.935Z,7.29
2023-04-11T21:09:42.434Z,7.22
2023-04-11T21:11:48.856Z,7.24
2023-04-11T21:13:56.620Z,7.19
2023-04-11T21:16:04.509Z,7.11
2023-04-11T21:18:11.367Z,7.02
2023-04-11T21:20:18.822Z,6.95
2023-04-11T21:22:25.499Z,6.92
2023-04-11T21:24:31.761Z,6.89
2023-04-11T21:26:38.390Z,7.04
2023-04-11T21:28:45.376Z,7.25
2023-04-11T21:30:52.598Z,7.4
2023-04-11T21:32:59.236Z,7.57
2023-04-11T21:35:06.353Z,7.46
2023-04-11T21:37:13.355Z,7.41
2023-04-11T21:39:20.150Z,7.36
2023-04-11T21:41:26.444Z,7.38
2023-04-11T21:43:33.017Z,7.42
2023-04-11T21:45:39.823Z,7.44
2023-04-11T21:47:46.217Z,7.43
2023-04-11T21:49:53.087Z,7.4
2023-04-11T21:51:59.567Z,7.45
2023-04-11T21:54:05.829Z,7.52
2023-04-11T21:56:12.196Z,7.58
2023-04-11T21:58:28.942Z,7.62
2023-04-11T22:00:35.627Z,7.65
2023-04-11T22:02:42.678Z,7.69
2023-04-11T22:05:04.420Z,7.63
2023-04-11T22:07:13.773Z,7.63
2023-04-11T22:09:20.222Z,7.67
2023-04-11T22:11:26.688Z,7.75
2023-04-11T22:13:33.363Z,7.68
2023-04-11T22:15:39.803Z,7.62
2023-04-11T22:17:46.207Z,7.55
2023-04-11T22:19:53.713Z,7.54
2023-04-11T22:22:00.134Z,7.55
2023-04-11T22:24:06.772Z,7.49
2023-04-11T22:26:13.364Z,7.45
2023-04-11T22:28:19.928Z,7.39
2023-04-11T22:30:26.381Z,7.35
2023-04-11T22:32:32.838Z,7.45
2023-04-11T22:34:39.820Z,7.56
2023-04-11T22:36:47.558Z,7.66
2023-04-11T22:38:53.880Z,7.64
2023-04-11T22:41:01.470Z,7.67
2023-04-11T22:43:08.118Z,7.61
2023-04-11T22:45:14.667Z,7.65
2023-04-11T22:47:21.878Z,7.76
2023-04-11T22:49:28.753Z,7.81
2023-04-11T22:51:35.454Z,7.88
2023-04-11T22:53:42.444Z,7.95
2023-04-11T22:55:53.575Z,8
2023-04-11T22:58:00.530Z,8.03
2023-04-11T23:00:07.379Z,8.1
2023-04-11T23:02:14.018Z,8.16
2023-04-11T23:04:21.495Z,8.22
2023-04-11T23:06:29.147Z,8.26
2023-04-11T23:08:36.027Z,8.29
2023-04-11T23:10:43.261Z,8.29
2023-04-11T23:12:49.725Z,8.3
2023-04-11T23:14:57.030Z,8.28
2023-04-11T23:17:03.768Z,8.28
2023-04-11T23:19:10.923Z,8.3
2023-04-11T23:21:17.466Z,8.25
2023-04-11T23:23:24.284Z,8.25
2023-04-11T23:25:31.033Z,8.31
2023-04-11T23:27:37.501Z,8.34
2023-04-11T23:29:44.064Z,8.34
2023-04-11T23:31:51.082Z,8.35
2023-04-11T23:33:57.875Z,8.32
2023-04-11T23:36:05.265Z,8.28
2023-04-11T23:38:12.038Z,8.18
2023-04-11T23:40:19.243Z,8.15
2023-04-11T23:42:26.034Z,8.11
2023-04-11T23:44:32.836Z,8.06
2023-04-11T23:46:39.053Z,8.04
2023-04-11T23:48:46.200Z,8.03
2023-04-11T23:50:52.449Z,7.99
2023-04-11T23:52:59.293Z,8
2023-04-11T23:55:05.639Z,7.95
2023-04-11T23:57:12.286Z,7.92
2023-04-11T23:59:18.743Z,7.87
